Trappe, Maryland
Current Conditions -  °F | °C
As of 6:52 AM on Friday 19 Dec 2014 (Local Time) from KCGE Reporting Station
Scattered Clouds Scattered Clouds  
Wind Chill: 29°   Ceiling: Unl
Heat Index: 36°   Visibility: 10mi
Dew Point: 27°   Wind: 9mph
Humidity: 70%   Direction: 310°NW
Pressure: 30.11"   Gusts: 16mph
Location:  38.66°N, 76.06°W
Report Text: KCGE 191152Z AUTO 31008G14KT 10SM SCT035 SCT100 02/M03 A3011 RMK AO1
Loading
Personal Weather Stations






























Interactive Weather Map New forecast layout! Learn more

10-Day Weather Forecast

Advertisements
Track Severe Weather on mobile